createdAt,value
2023-04-17T00:00:02.091Z,44.24418030160312
2023-04-17T00:15:01.765Z,44.271420944120344
2023-04-17T00:30:01.466Z,44.270484870825705
2023-04-17T00:45:02.099Z,44.33772822985252
2023-04-17T01:00:01.740Z,44.63525458543385
2023-04-17T01:15:01.421Z,44.49898646963935
2023-04-17T01:30:02.105Z,44.430377923504594
2023-04-17T01:45:01.732Z,44.412662332973895
2023-04-17T02:00:01.511Z,44.52430488737185
2023-04-17T02:15:01.432Z,44.90651195525614
2023-04-17T02:30:02.170Z,44.506513633676406
2023-04-17T02:45:01.899Z,44.444448384582266
2023-04-17T03:00:01.920Z,44.39882083486704
2023-04-17T03:15:01.568Z,44.1449490944507
2023-04-17T03:30:02.272Z,44.08218370015056
2023-04-17T03:45:01.931Z,44.49880520990775
2023-04-17T04:00:01.573Z,45.045527021638144
2023-04-17T04:15:02.214Z,43.851498140374424
2023-04-17T04:30:02.053Z,43.754429037007526
2023-04-17T04:45:01.739Z,44.02914487880306
2023-04-17T05:00:01.347Z,43.76343775138986
2023-04-17T05:15:02.024Z,43.5482518534494
2023-04-17T05:30:01.807Z,43.13661240792322
2023-04-17T05:45:01.431Z,42.328863703736324
2023-04-17T06:00:02.045Z,41.33174719331379
2023-04-17T06:15:01.641Z,40.53541644814691
2023-04-17T06:30:02.267Z,39.468428923781126
2023-04-17T06:45:01.851Z,39.05065298794482
2023-04-17T07:00:01.758Z,37.59181380494933
2023-04-17T07:15:02.478Z,36.25124464596079
2023-04-17T07:30:02.096Z,34.48771111809184
2023-04-17T07:45:01.750Z,32.88130367822477
2023-04-17T08:00:02.350Z,30.00812912503332
2023-04-17T08:15:02.114Z,28.09130591671998
2023-04-17T08:30:01.785Z,23.413599294221747
2023-04-17T08:45:02.419Z,26.74534581562912
2023-04-17T09:00:02.131Z,27.253758485326046
2023-04-17T09:15:01.802Z,24.806563180161206
2023-04-17T09:30:02.411Z,24.530372075617677
2023-04-17T09:45:02.128Z,23.998883217831665
2023-04-17T10:00:01.849Z,23.55098838302089
2023-04-17T10:15:01.511Z,20.959407612717083
2023-04-17T10:30:02.274Z,19.27302228371815
2023-04-17T10:45:02.022Z,18.723114896222267
2023-04-17T11:00:01.644Z,20.13030286051224
2023-04-17T11:15:02.261Z,18.447436188715585
2023-04-17T11:30:01.975Z,19.005640971530106
2023-04-17T11:45:03.623Z,16.423947008256235
2023-04-17T12:00:01.932Z,17.03394283986406
2023-04-17T12:15:01.628Z,17.058078226746733
2023-04-17T12:30:02.262Z,18.04746173222154
2023-04-17T12:45:01.976Z,20.3672561611361
2023-04-17T13:00:01.585Z,17.1166839700225
2023-04-17T13:15:02.222Z,17.73412354540732
2023-04-17T13:30:01.894Z,20.114963048557815
2023-04-17T13:45:01.560Z,26.62600574760896
2023-04-17T14:00:02.125Z,26.318734483043347
2023-04-17T14:15:01.820Z,20.46413555524424
2023-04-17T14:30:01.808Z,19.44601571145325
2023-04-17T14:45:01.558Z,23.291912582141535
2023-04-17T15:00:02.209Z,21.974120609507253
2023-04-17T15:15:01.886Z,21.921529829881106
2023-04-17T15:30:01.673Z,25.020591729257095
2023-04-17T15:45:01.329Z,29.974972202437137
2023-04-17T16:00:01.953Z,31.469784070436962
2023-04-17T16:15:01.561Z,34.26975959001256
2023-04-17T16:30:02.300Z,33.81230440679958
2023-04-17T16:45:02.078Z,33.890746707917195
2023-04-17T17:00:01.675Z,31.21976643665223
2023-04-17T17:15:01.403Z,32.44986448153009
2023-04-17T17:30:02.112Z,33.11682412267001
2023-04-17T17:45:01.783Z,34.239217807078774
2023-04-17T18:00:01.483Z,36.13779742119043
2023-04-17T18:15:01.279Z,37.5833219977591
2023-04-17T18:30:01.955Z,38.40266856568564
2023-04-17T18:45:01.566Z,38.811108344306604
2023-04-17T19:00:01.163Z,38.9946513330063
2023-04-17T19:15:01.823Z,38.88670413932443
2023-04-17T19:30:01.487Z,38.88131953149422
2023-04-17T19:45:01.130Z,38.87582609651107
2023-04-17T20:00:01.697Z,39.02932844871003
2023-04-17T20:15:01.338Z,39.23350944902327
2023-04-17T20:30:02.027Z,39.37492190061535
2023-04-17T20:45:01.642Z,39.49350779245656
2023-04-17T21:00:01.209Z,39.74202066012466
2023-04-17T21:15:01.873Z,40.0750216231357
2023-04-17T21:30:01.563Z,40.35115942410029
2023-04-17T21:45:01.178Z,40.60449260950866
2023-04-17T22:00:01.793Z,40.68283497054513
2023-04-17T22:15:01.433Z,40.80058753183441
2023-04-17T22:30:01.116Z,40.87878003471364
2023-04-17T22:45:01.766Z,40.962545575296765
2023-04-17T23:00:01.707Z,39.982734648888936
2023-04-17T23:15:01.386Z,38.93801722606383
2023-04-17T23:30:02.134Z,38.501861562509845
2023-04-17T23:45:01.821Z,38.649185136495085
